sensor_id;sensor_type;location;lat;lon;timestamp;P1;durP1;ratioP1;P2;durP2;ratioP2
8580;SDS011;4328;48.622;9.230;2023-05-07T10:44:30;2.42;;;1.38;;
8580;SDS011;4328;48.622;9.230;2023-05-07T10:52:28;1.58;;;1.30;;
8580;SDS011;4328;48.622;9.230;2023-05-07T12:40:06;1.03;;;1.03;;
8580;SDS011;4328;48.622;9.230;2023-05-07T12:42:35;1.77;;;1.20;;
8580;SDS011;4328;48.622;9.230;2023-05-07T12:45:07;1.00;;;1.00;;
8580;SDS011;4328;48.622;9.230;2023-05-07T12:47:34;3.37;;;1.50;;
8580;SDS011;4328;48.622;9.230;2023-05-07T12:50:01;1.50;;;1.40;;
8580;SDS011;4328;48.622;9.230;2023-05-07T12:52:28;1.43;;;1.27;;
8580;SDS011;4328;48.622;9.230;2023-05-07T12:54:56;5.63;;;2.10;;
8580;SDS011;4328;48.622;9.230;2023-05-07T12:57:24;1.60;;;1.50;;
8580;SDS011;4328;48.622;9.230;2023-05-07T12:59:51;3.10;;;1.53;;
8580;SDS011;4328;48.622;9.230;2023-05-07T13:02:31;1.37;;;1.17;;
8580;SDS011;4328;48.622;9.230;2023-05-07T13:04:58;3.37;;;1.20;;
8580;SDS011;4328;48.622;9.230;2023-05-07T13:07:25;2.10;;;1.30;;
8580;SDS011;4328;48.622;9.230;2023-05-07T13:09:52;1.93;;;1.30;;
8580;SDS011;4328;48.622;9.230;2023-05-07T13:12:18;1.30;;;1.20;;
8580;SDS011;4328;48.622;9.230;2023-05-07T13:14:46;1.43;;;1.07;;
8580;SDS011;4328;48.622;9.230;2023-05-07T13:17:13;2.67;;;1.47;;
8580;SDS011;4328;48.622;9.230;2023-05-07T13:19:40;1.10;;;1.10;;
8580;SDS011;4328;48.622;9.230;2023-05-07T13:22:06;1.10;;;1.10;;
8580;SDS011;4328;48.622;9.230;2023-05-07T13:24:33;1.87;;;1.27;;
8580;SDS011;4328;48.622;9.230;2023-05-07T13:27:00;1.93;;;1.30;;
8580;SDS011;4328;48.622;9.230;2023-05-07T13:29:26;2.63;;;1.50;;
8580;SDS011;4328;48.622;9.230;2023-05-07T13:31:56;1.73;;;1.63;;
8580;SDS011;4328;48.622;9.230;2023-05-07T13:34:25;3.73;;;1.60;;
8580;SDS011;4328;48.622;9.230;2023-05-07T13:36:52;1.90;;;1.57;;
8580;SDS011;4328;48.622;9.230;2023-05-07T13:39:18;1.87;;;1.70;;
8580;SDS011;4328;48.622;9.230;2023-05-07T13:41:45;4.40;;;2.17;;
8580;SDS011;4328;48.622;9.230;2023-05-07T13:44:12;5.10;;;2.93;;
8580;SDS011;4328;48.622;9.230;2023-05-07T13:46:38;4.73;;;2.30;;
8580;SDS011;4328;48.622;9.230;2023-05-07T13:49:06;6.37;;;2.50;;
8580;SDS011;4328;48.622;9.230;2023-05-07T13:51:36;3.13;;;2.10;;
8580;SDS011;4328;48.622;9.230;2023-05-07T13:54:03;4.53;;;2.37;;
8580;SDS011;4328;48.622;9.230;2023-05-07T13:56:29;3.90;;;2.80;;
8580;SDS011;4328;48.622;9.230;2023-05-07T13:58:57;3.87;;;2.80;;
8580;SDS011;4328;48.622;9.230;2023-05-07T14:01:24;6.93;;;3.53;;
8580;SDS011;4328;48.622;9.230;2023-05-07T14:03:50;4.57;;;3.30;;
8580;SDS011;4328;48.622;9.230;2023-05-07T14:06:18;3.23;;;2.90;;
8580;SDS011;4328;48.622;9.230;2023-05-07T14:08:45;3.53;;;2.90;;
8580;SDS011;4328;48.622;9.230;2023-05-07T14:11:12;5.07;;;2.67;;
8580;SDS011;4328;48.622;9.230;2023-05-07T14:13:39;4.53;;;3.00;;
8580;SDS011;4328;48.622;9.230;2023-05-07T14:16:06;3.73;;;2.83;;
8580;SDS011;4328;48.622;9.230;2023-05-07T14:18:41;6.03;;;2.73;;
8580;SDS011;4328;48.622;9.230;2023-05-07T14:21:13;5.97;;;3.27;;
8580;SDS011;4328;48.622;9.230;2023-05-07T14:23:45;5.47;;;3.30;;
8580;SDS011;4328;48.622;9.230;2023-05-07T14:26:12;4.57;;;3.30;;
8580;SDS011;4328;48.622;9.230;2023-05-07T14:28:38;4.77;;;2.80;;
8580;SDS011;4328;48.622;9.230;2023-05-07T14:31:11;5.87;;;3.40;;
8580;SDS011;4328;48.622;9.230;2023-05-07T14:33:37;4.30;;;3.07;;
8580;SDS011;4328;48.622;9.230;2023-05-07T14:36:04;3.13;;;2.83;;
8580;SDS011;4328;48.622;9.230;2023-05-07T14:38:31;3.60;;;3.10;;
8580;SDS011;4328;48.622;9.230;2023-05-07T14:41:00;4.87;;;3.00;;
8580;SDS011;4328;48.622;9.230;2023-05-07T14:43:26;5.17;;;3.13;;
8580;SDS011;4328;48.622;9.230;2023-05-07T14:45:53;4.77;;;3.10;;
8580;SDS011;4328;48.622;9.230;2023-05-07T14:48:20;4.03;;;2.60;;
8580;SDS011;4328;48.622;9.230;2023-05-07T14:50:46;3.43;;;3.13;;
8580;SDS011;4328;48.622;9.230;2023-05-07T14:53:13;3.60;;;3.30;;
8580;SDS011;4328;48.622;9.230;2023-05-07T14:55:39;4.73;;;2.97;;
8580;SDS011;4328;48.622;9.230;2023-05-07T14:58:08;4.53;;;2.80;;
8580;SDS011;4328;48.622;9.230;2023-05-07T15:00:34;5.23;;;3.30;;
8580;SDS011;4328;48.622;9.230;2023-05-07T15:03:04;5.60;;;3.40;;
8580;SDS011;4328;48.622;9.230;2023-05-07T15:05:31;3.60;;;3.20;;
8580;SDS011;4328;48.622;9.230;2023-05-07T15:08:01;6.03;;;3.40;;
8580;SDS011;4328;48.622;9.230;2023-05-07T15:10:28;3.77;;;3.10;;
8580;SDS011;4328;48.622;9.230;2023-05-07T15:12:55;4.00;;;2.90;;
8580;SDS011;4328;48.622;9.230;2023-05-07T15:15:23;4.87;;;3.07;;
8580;SDS011;4328;48.622;9.230;2023-05-07T15:17:49;5.77;;;2.83;;
8580;SDS011;4328;48.622;9.230;2023-05-07T15:20:16;3.80;;;2.57;;
8580;SDS011;4328;48.622;9.230;2023-05-07T15:22:43;2.90;;;2.40;;
8580;SDS011;4328;48.622;9.230;2023-05-07T15:25:11;2.03;;;1.93;;
8580;SDS011;4328;48.622;9.230;2023-05-07T15:27:37;3.13;;;2.80;;
8580;SDS011;4328;48.622;9.230;2023-05-07T15:30:05;3.17;;;2.30;;
8580;SDS011;4328;48.622;9.230;2023-05-07T15:32:33;2.67;;;2.37;;
8580;SDS011;4328;48.622;9.230;2023-05-07T15:35:00;2.80;;;2.30;;
8580;SDS011;4328;48.622;9.230;2023-05-07T15:37:27;3.30;;;2.20;;
8580;SDS011;4328;48.622;9.230;2023-05-07T15:39:54;3.27;;;2.40;;
8580;SDS011;4328;48.622;9.230;2023-05-07T15:42:20;2.47;;;2.27;;
8580;SDS011;4328;48.622;9.230;2023-05-07T15:44:47;2.80;;;2.53;;
8580;SDS011;4328;48.622;9.230;2023-05-07T15:47:14;4.27;;;2.50;;
8580;SDS011;4328;48.622;9.230;2023-05-07T15:49:42;4.93;;;2.50;;
8580;SDS011;4328;48.622;9.230;2023-05-07T15:52:09;2.60;;;2.40;;
8580;SDS011;4328;48.622;9.230;2023-05-07T15:54:38;2.27;;;2.13;;
8580;SDS011;4328;48.622;9.230;2023-05-07T15:57:05;3.07;;;2.60;;
8580;SDS011;4328;48.622;9.230;2023-05-07T15:59:32;2.50;;;2.30;;
8580;SDS011;4328;48.622;9.230;2023-05-07T16:02:00;2.90;;;2.00;;
8580;SDS011;4328;48.622;9.230;2023-05-07T16:04:27;3.23;;;2.20;;
8580;SDS011;4328;48.622;9.230;2023-05-07T16:06:55;2.30;;;2.00;;
8580;SDS011;4328;48.622;9.230;2023-05-07T16:09:21;2.30;;;2.00;;
8580;SDS011;4328;48.622;9.230;2023-05-07T16:11:49;3.03;;;2.20;;
8580;SDS011;4328;48.622;9.230;2023-05-07T16:14:16;2.40;;;2.20;;
8580;SDS011;4328;48.622;9.230;2023-05-07T16:16:43;2.33;;;2.13;;
8580;SDS011;4328;48.622;9.230;2023-05-07T16:19:10;2.53;;;2.40;;
8580;SDS011;4328;48.622;9.230;2023-05-07T16:21:36;3.50;;;2.50;;
8580;SDS011;4328;48.622;9.230;2023-05-07T16:24:05;2.47;;;2.10;;
8580;SDS011;4328;48.622;9.230;2023-05-07T16:26:32;4.53;;;2.40;;
8580;SDS011;4328;48.622;9.230;2023-05-07T16:29:00;4.77;;;2.80;;
8580;SDS011;4328;48.622;9.230;2023-05-07T16:31:29;3.10;;;2.90;;
8580;SDS011;4328;48.622;9.230;2023-05-07T16:33:56;2.70;;;2.57;;
8580;SDS011;4328;48.622;9.230;2023-05-07T16:36:25;3.47;;;3.10;;
8580;SDS011;4328;48.622;9.230;2023-05-07T16:38:52;3.13;;;2.83;;
8580;SDS011;4328;48.622;9.230;2023-05-07T16:41:21;2.93;;;2.43;;
8580;SDS011;4328;48.622;9.230;2023-05-07T16:43:48;2.40;;;2.20;;
8580;SDS011;4328;48.622;9.230;2023-05-07T16:46:15;4.33;;;2.90;;
8580;SDS011;4328;48.622;9.230;2023-05-07T16:48:42;2.77;;;2.30;;
8580;SDS011;4328;48.622;9.230;2023-05-07T16:51:09;2.73;;;2.30;;
8580;SDS011;4328;48.622;9.230;2023-05-07T16:53:36;2.97;;;2.40;;
8580;SDS011;4328;48.622;9.230;2023-05-07T16:56:03;2.93;;;2.47;;
8580;SDS011;4328;48.622;9.230;2023-05-07T16:58:32;2.97;;;2.43;;
8580;SDS011;4328;48.622;9.230;2023-05-07T17:00:59;2.60;;;2.50;;
8580;SDS011;4328;48.622;9.230;2023-05-07T17:03:26;2.53;;;2.33;;
8580;SDS011;4328;48.622;9.230;2023-05-07T17:05:54;3.00;;;2.40;;
8580;SDS011;4328;48.622;9.230;2023-05-07T17:08:20;3.23;;;2.60;;
8580;SDS011;4328;48.622;9.230;2023-05-07T17:10:47;3.27;;;2.97;;
8580;SDS011;4328;48.622;9.230;2023-05-07T17:13:14;5.60;;;2.90;;
8580;SDS011;4328;48.622;9.230;2023-05-07T17:15:42;3.97;;;2.80;;
8580;SDS011;4328;48.622;9.230;2023-05-07T17:18:10;3.27;;;3.00;;
8580;SDS011;4328;48.622;9.230;2023-05-07T17:20:37;3.20;;;2.90;;
8580;SDS011;4328;48.622;9.230;2023-05-07T17:23:04;3.30;;;3.10;;
8580;SDS011;4328;48.622;9.230;2023-05-07T17:25:31;3.03;;;2.77;;
8580;SDS011;4328;48.622;9.230;2023-05-07T17:27:58;3.47;;;3.13;;
8580;SDS011;4328;48.622;9.230;2023-05-07T17:30:24;3.23;;;2.93;;
8580;SDS011;4328;48.622;9.230;2023-05-07T17:32:52;4.23;;;3.00;;
8580;SDS011;4328;48.622;9.230;2023-05-07T17:35:21;3.30;;;3.10;;
8580;SDS011;4328;48.622;9.230;2023-05-07T17:37:47;5.07;;;3.00;;
8580;SDS011;4328;48.622;9.230;2023-05-07T17:40:16;3.07;;;2.80;;
8580;SDS011;4328;48.622;9.230;2023-05-07T17:42:44;2.43;;;2.30;;
8580;SDS011;4328;48.622;9.230;2023-05-07T17:45:11;2.80;;;2.70;;
8580;SDS011;4328;48.622;9.230;2023-05-07T17:47:38;4.10;;;2.87;;
8580;SDS011;4328;48.622;9.230;2023-05-07T17:50:07;3.43;;;3.10;;
8580;SDS011;4328;48.622;9.230;2023-05-07T17:52:35;3.00;;;2.80;;
8580;SDS011;4328;48.622;9.230;2023-05-07T17:55:02;3.13;;;2.93;;
8580;SDS011;4328;48.622;9.230;2023-05-07T17:57:29;2.93;;;2.60;;
8580;SDS011;4328;48.622;9.230;2023-05-07T17:59:59;2.90;;;2.70;;
8580;SDS011;4328;48.622;9.230;2023-05-07T18:02:26;3.40;;;3.10;;
8580;SDS011;4328;48.622;9.230;2023-05-07T18:04:52;3.60;;;3.20;;
8580;SDS011;4328;48.622;9.230;2023-05-07T18:07:21;3.10;;;2.90;;
8580;SDS011;4328;48.622;9.230;2023-05-07T18:09:47;3.60;;;3.30;;
8580;SDS011;4328;48.622;9.230;2023-05-07T18:12:14;3.63;;;3.23;;
8580;SDS011;4328;48.622;9.230;2023-05-07T18:14:40;3.60;;;3.40;;
8580;SDS011;4328;48.622;9.230;2023-05-07T18:17:08;4.10;;;3.73;;
8580;SDS011;4328;48.622;9.230;2023-05-07T18:19:35;4.13;;;3.73;;
8580;SDS011;4328;48.622;9.230;2023-05-07T18:22:02;4.30;;;3.70;;
8580;SDS011;4328;48.622;9.230;2023-05-07T18:24:30;3.60;;;3.30;;
8580;SDS011;4328;48.622;9.230;2023-05-07T18:26:57;3.90;;;3.40;;
8580;SDS011;4328;48.622;9.230;2023-05-07T18:29:23;4.03;;;3.70;;
8580;SDS011;4328;48.622;9.230;2023-05-07T18:31:50;3.90;;;3.20;;
8580;SDS011;4328;48.622;9.230;2023-05-07T18:34:17;5.70;;;3.90;;
8580;SDS011;4328;48.622;9.230;2023-05-07T18:36:45;3.93;;;3.63;;
8580;SDS011;4328;48.622;9.230;2023-05-07T18:39:11;4.07;;;3.67;;
8580;SDS011;4328;48.622;9.230;2023-05-07T18:41:40;5.30;;;4.23;;
8580;SDS011;4328;48.622;9.230;2023-05-07T18:44:09;4.30;;;3.90;;
8580;SDS011;4328;48.622;9.230;2023-05-07T18:46:35;4.53;;;3.67;;
8580;SDS011;4328;48.622;9.230;2023-05-07T18:49:02;4.13;;;3.83;;
8580;SDS011;4328;48.622;9.230;2023-05-07T18:51:30;4.67;;;4.27;;
8580;SDS011;4328;48.622;9.230;2023-05-07T18:53:57;5.37;;;4.87;;
8580;SDS011;4328;48.622;9.230;2023-05-07T18:56:26;4.60;;;3.83;;
8580;SDS011;4328;48.622;9.230;2023-05-07T18:58:54;4.10;;;3.80;;
8580;SDS011;4328;48.622;9.230;2023-05-07T19:01:20;4.73;;;4.33;;
8580;SDS011;4328;48.622;9.230;2023-05-07T19:03:47;5.77;;;4.40;;
8580;SDS011;4328;48.622;9.230;2023-05-07T19:06:15;4.83;;;4.43;;
8580;SDS011;4328;48.622;9.230;2023-05-07T19:08:41;4.83;;;4.40;;
8580;SDS011;4328;48.622;9.230;2023-05-07T19:11:08;4.83;;;4.43;;
8580;SDS011;4328;48.622;9.230;2023-05-07T19:13:35;5.60;;;4.90;;
8580;SDS011;4328;48.622;9.230;2023-05-07T19:16:03;6.80;;;4.50;;
8580;SDS011;4328;48.622;9.230;2023-05-07T19:18:34;6.13;;;4.13;;
8580;SDS011;4328;48.622;9.230;2023-05-07T19:21:00;5.97;;;4.67;;
8580;SDS011;4328;48.622;9.230;2023-05-07T19:23:27;5.00;;;4.67;;
8580;SDS011;4328;48.622;9.230;2023-05-07T19:25:54;6.30;;;4.63;;
8580;SDS011;4328;48.622;9.230;2023-05-07T19:28:20;5.30;;;4.80;;
8580;SDS011;4328;48.622;9.230;2023-05-07T19:30:47;5.43;;;4.83;;
8580;SDS011;4328;48.622;9.230;2023-05-07T19:33:17;5.80;;;5.10;;
8580;SDS011;4328;48.622;9.230;2023-05-07T19:35:44;8.90;;;5.10;;
8580;SDS011;4328;48.622;9.230;2023-05-07T19:38:11;4.97;;;4.57;;
8580;SDS011;4328;48.622;9.230;2023-05-07T19:40:37;5.63;;;5.13;;
8580;SDS011;4328;48.622;9.230;2023-05-07T19:43:04;6.43;;;5.33;;
8580;SDS011;4328;48.622;9.230;2023-05-07T19:45:31;5.30;;;4.77;;
8580;SDS011;4328;48.622;9.230;2023-05-07T19:47:57;5.47;;;5.07;;
8580;SDS011;4328;48.622;9.230;2023-05-07T19:50:25;5.43;;;5.03;;
8580;SDS011;4328;48.622;9.230;2023-05-07T19:52:52;5.83;;;5.23;;
8580;SDS011;4328;48.622;9.230;2023-05-07T19:55:19;5.33;;;4.83;;
8580;SDS011;4328;48.622;9.230;2023-05-07T19:57:46;5.70;;;5.20;;
8580;SDS011;4328;48.622;9.230;2023-05-07T20:00:14;5.40;;;4.90;;
8580;SDS011;4328;48.622;9.230;2023-05-07T20:02:41;5.50;;;5.00;;
8580;SDS011;4328;48.622;9.230;2023-05-07T20:05:08;5.50;;;5.10;;
8580;SDS011;4328;48.622;9.230;2023-05-07T20:07:39;5.93;;;5.33;;
8580;SDS011;4328;48.622;9.230;2023-05-07T20:10:06;6.43;;;5.70;;
8580;SDS011;4328;48.622;9.230;2023-05-07T20:12:34;7.60;;;5.57;;
8580;SDS011;4328;48.622;9.230;2023-05-07T20:15:00;6.20;;;5.70;;
8580;SDS011;4328;48.622;9.230;2023-05-07T20:17:27;6.37;;;5.77;;
8580;SDS011;4328;48.622;9.230;2023-05-07T20:19:54;6.43;;;5.87;;
8580;SDS011;4328;48.622;9.230;2023-05-07T20:22:21;6.50;;;5.90;;
8580;SDS011;4328;48.622;9.230;2023-05-07T20:24:50;6.70;;;6.10;;
8580;SDS011;4328;48.622;9.230;2023-05-07T20:27:16;6.57;;;5.97;;
8580;SDS011;4328;48.622;9.230;2023-05-07T20:29:48;6.97;;;6.27;;
8580;SDS011;4328;48.622;9.230;2023-05-07T20:32:15;6.80;;;6.20;;
8580;SDS011;4328;48.622;9.230;2023-05-07T20:34:43;6.83;;;6.23;;
8580;SDS011;4328;48.622;9.230;2023-05-07T20:37:10;6.30;;;5.80;;
8580;SDS011;4328;48.622;9.230;2023-05-07T20:39:38;6.20;;;5.60;;
8580;SDS011;4328;48.622;9.230;2023-05-07T20:42:06;6.20;;;5.70;;
8580;SDS011;4328;48.622;9.230;2023-05-07T20:44:33;6.50;;;5.90;;
8580;SDS011;4328;48.622;9.230;2023-05-07T20:47:00;7.43;;;5.93;;
8580;SDS011;4328;48.622;9.230;2023-05-07T20:49:27;6.67;;;6.17;;
8580;SDS011;4328;48.622;9.230;2023-05-07T20:51:54;6.97;;;6.27;;
8580;SDS011;4328;48.622;9.230;2023-05-07T20:54:21;6.97;;;6.37;;
8580;SDS011;4328;48.622;9.230;2023-05-07T20:56:47;6.20;;;5.80;;
8580;SDS011;4328;48.622;9.230;2023-05-07T20:59:15;8.47;;;6.43;;
8580;SDS011;4328;48.622;9.230;2023-05-07T21:01:42;6.97;;;6.47;;
8580;SDS011;4328;48.622;9.230;2023-05-07T21:04:09;7.00;;;6.33;;
8580;SDS011;4328;48.622;9.230;2023-05-07T21:06:35;7.33;;;6.73;;
8580;SDS011;4328;48.622;9.230;2023-05-07T21:09:02;6.83;;;6.23;;
8580;SDS011;4328;48.622;9.230;2023-05-07T21:11:29;6.40;;;5.77;;
8580;SDS011;4328;48.622;9.230;2023-05-07T21:13:56;7.40;;;5.87;;
8580;SDS011;4328;48.622;9.230;2023-05-07T21:16:24;7.10;;;6.10;;
8580;SDS011;4328;48.622;9.230;2023-05-07T21:18:50;7.53;;;6.70;;
8580;SDS011;4328;48.622;9.230;2023-05-07T21:21:17;7.27;;;6.60;;
8580;SDS011;4328;48.622;9.230;2023-05-07T21:23:44;7.50;;;6.90;;
8580;SDS011;4328;48.622;9.230;2023-05-07T21:26:16;7.23;;;6.63;;
8580;SDS011;4328;48.622;9.230;2023-05-07T21:28:43;6.97;;;6.37;;
8580;SDS011;4328;48.622;9.230;2023-05-07T21:31:09;7.17;;;6.57;;
8580;SDS011;4328;48.622;9.230;2023-05-07T21:33:38;7.63;;;6.93;;
8580;SDS011;4328;48.622;9.230;2023-05-07T21:36:05;8.63;;;6.33;;
8580;SDS011;4328;48.622;9.230;2023-05-07T21:38:32;6.97;;;6.27;;
8580;SDS011;4328;48.622;9.230;2023-05-07T21:40:59;7.07;;;6.30;;
8580;SDS011;4328;48.622;9.230;2023-05-07T21:43:25;6.37;;;5.80;;
8580;SDS011;4328;48.622;9.230;2023-05-07T21:45:52;6.10;;;5.60;;
8580;SDS011;4328;48.622;9.230;2023-05-07T21:48:18;6.97;;;6.37;;
8580;SDS011;4328;48.622;9.230;2023-05-07T21:50:47;7.63;;;6.90;;
8580;SDS011;4328;48.622;9.230;2023-05-07T21:53:14;6.77;;;6.27;;
8580;SDS011;4328;48.622;9.230;2023-05-07T21:55:41;8.23;;;6.37;;
8580;SDS011;4328;48.622;9.230;2023-05-07T21:58:07;7.23;;;6.53;;
8580;SDS011;4328;48.622;9.230;2023-05-07T22:00:34;6.73;;;6.13;;
8580;SDS011;4328;48.622;9.230;2023-05-07T22:03:00;7.13;;;6.43;;
8580;SDS011;4328;48.622;9.230;2023-05-07T22:05:27;7.30;;;6.60;;
8580;SDS011;4328;48.622;9.230;2023-05-07T22:07:55;6.73;;;6.23;;
8580;SDS011;4328;48.622;9.230;2023-05-07T22:10:22;7.73;;;6.50;;
8580;SDS011;4328;48.622;9.230;2023-05-07T22:12:48;7.50;;;6.47;;
8580;SDS011;4328;48.622;9.230;2023-05-07T22:15:15;8.30;;;6.93;;
8580;SDS011;4328;48.622;9.230;2023-05-07T22:17:42;7.23;;;6.63;;
8580;SDS011;4328;48.622;9.230;2023-05-07T22:20:09;8.53;;;7.10;;
8580;SDS011;4328;48.622;9.230;2023-05-07T22:22:44;6.73;;;6.10;;
8580;SDS011;4328;48.622;9.230;2023-05-07T22:25:13;10.17;;;6.70;;
8580;SDS011;4328;48.622;9.230;2023-05-07T22:27:40;7.27;;;6.57;;
8580;SDS011;4328;48.622;9.230;2023-05-07T22:30:10;9.07;;;6.83;;
8580;SDS011;4328;48.622;9.230;2023-05-07T22:32:37;7.73;;;6.93;;
8580;SDS011;4328;48.622;9.230;2023-05-07T22:35:04;7.30;;;6.40;;
8580;SDS011;4328;48.622;9.230;2023-05-07T22:37:32;7.53;;;6.93;;
8580;SDS011;4328;48.622;9.230;2023-05-07T22:39:58;9.83;;;7.07;;
8580;SDS011;4328;48.622;9.230;2023-05-07T22:42:26;9.63;;;7.10;;
8580;SDS011;4328;48.622;9.230;2023-05-07T22:44:53;8.77;;;7.10;;
8580;SDS011;4328;48.622;9.230;2023-05-07T22:47:20;7.37;;;6.67;;
8580;SDS011;4328;48.622;9.230;2023-05-07T22:49:47;7.43;;;6.67;;
8580;SDS011;4328;48.622;9.230;2023-05-07T22:52:14;7.00;;;6.50;;
8580;SDS011;4328;48.622;9.230;2023-05-07T22:54:41;7.60;;;6.83;;
8580;SDS011;4328;48.622;9.230;2023-05-07T22:57:07;9.07;;;7.47;;
8580;SDS011;4328;48.622;9.230;2023-05-07T22:59:35;8.50;;;7.33;;
8580;SDS011;4328;48.622;9.230;2023-05-07T23:02:02;7.93;;;7.13;;
8580;SDS011;4328;48.622;9.230;2023-05-07T23:04:29;7.23;;;6.63;;
8580;SDS011;4328;48.622;9.230;2023-05-07T23:06:56;7.57;;;6.87;;
8580;SDS011;4328;48.622;9.230;2023-05-07T23:09:23;7.73;;;7.03;;
8580;SDS011;4328;48.622;9.230;2023-05-07T23:11:50;7.50;;;6.90;;
8580;SDS011;4328;48.622;9.230;2023-05-07T23:14:17;6.83;;;6.33;;
8580;SDS011;4328;48.622;9.230;2023-05-07T23:16:45;7.53;;;6.93;;
8580;SDS011;4328;48.622;9.230;2023-05-07T23:19:12;8.33;;;6.87;;
8580;SDS011;4328;48.622;9.230;2023-05-07T23:21:38;10.70;;;7.40;;
8580;SDS011;4328;48.622;9.230;2023-05-07T23:24:05;9.20;;;6.67;;
8580;SDS011;4328;48.622;9.230;2023-05-07T23:26:32;8.07;;;7.20;;
8580;SDS011;4328;48.622;9.230;2023-05-07T23:28:59;7.10;;;6.50;;
8580;SDS011;4328;48.622;9.230;2023-05-07T23:31:26;9.73;;;7.13;;
8580;SDS011;4328;48.622;9.230;2023-05-07T23:33:54;7.33;;;6.60;;
8580;SDS011;4328;48.622;9.230;2023-05-07T23:36:20;7.30;;;6.60;;
8580;SDS011;4328;48.622;9.230;2023-05-07T23:38:47;7.27;;;6.53;;
8580;SDS011;4328;48.622;9.230;2023-05-07T23:41:13;8.70;;;7.20;;
8580;SDS011;4328;48.622;9.230;2023-05-07T23:43:40;7.10;;;6.40;;
8580;SDS011;4328;48.622;9.230;2023-05-07T23:46:07;6.83;;;6.23;;
8580;SDS011;4328;48.622;9.230;2023-05-07T23:48:33;9.10;;;6.77;;
8580;SDS011;4328;48.622;9.230;2023-05-07T23:51:01;7.07;;;6.37;;
8580;SDS011;4328;48.622;9.230;2023-05-07T23:53:28;6.93;;;6.27;;
8580;SDS011;4328;48.622;9.230;2023-05-07T23:55:55;6.23;;;5.73;;
8580;SDS011;4328;48.622;9.230;2023-05-07T23:58:22;7.20;;;6.50;;
